createdAt,value
2023-08-06T00:00:29.906Z,15.14
2023-08-06T00:02:56.473Z,15.16
2023-08-06T00:05:23.090Z,15.13
2023-08-06T00:07:51.967Z,15.14
2023-08-06T00:10:18.562Z,15.11
2023-08-06T00:12:45.169Z,15.11
2023-08-06T00:15:12.152Z,15.10
2023-08-06T00:17:38.800Z,15.08
2023-08-06T00:20:07.049Z,15.09
2023-08-06T00:22:34.771Z,15.09
2023-08-06T00:25:01.346Z,15.08
2023-08-06T00:27:27.796Z,15.09
2023-08-06T00:29:54.262Z,15.06
2023-08-06T00:32:20.994Z,15.06
2023-08-06T00:34:47.540Z,15.02
2023-08-06T00:37:14.374Z,15.02
2023-08-06T00:39:40.769Z,15.02
2023-08-06T00:42:07.134Z,15.03
2023-08-06T00:44:33.514Z,15.01
2023-08-06T00:47:02.265Z,15.02
2023-08-06T00:49:28.926Z,15.02
2023-08-06T00:51:57.719Z,15.00
2023-08-06T00:54:25.868Z,14.96
2023-08-06T00:56:52.379Z,14.94
2023-08-06T00:59:18.825Z,14.92
2023-08-06T01:01:46.322Z,14.90
2023-08-06T01:04:13.586Z,14.88
2023-08-06T01:06:48.381Z,14.88
2023-08-06T01:09:43.735Z,14.87
2023-08-06T01:12:24.744Z,14.87
2023-08-06T01:15:25.533Z,14.87
2023-08-06T01:17:53.268Z,14.89
2023-08-06T01:20:19.789Z,14.89
2023-08-06T01:22:46.167Z,14.90
2023-08-06T01:25:17.611Z,14.92
2023-08-06T01:27:55.683Z,14.95
2023-08-06T01:30:31.347Z,14.95
2023-08-06T01:33:05.731Z,14.95
2023-08-06T01:35:34.216Z,14.95
2023-08-06T01:38:04.442Z,14.96
2023-08-06T01:40:31.286Z,14.96
2023-08-06T01:42:57.767Z,14.96
2023-08-06T01:45:24.168Z,14.95
2023-08-06T01:47:50.968Z,14.92
2023-08-06T01:50:17.378Z,14.93
2023-08-06T01:52:45.310Z,14.92
2023-08-06T01:55:11.685Z,14.94
2023-08-06T01:57:38.082Z,14.94
2023-08-06T02:00:04.821Z,14.94
2023-08-06T02:02:39.583Z,14.93
2023-08-06T02:05:06.561Z,14.92
2023-08-06T02:07:33.035Z,14.92
2023-08-06T02:09:59.418Z,14.90
2023-08-06T02:12:25.790Z,14.91
2023-08-06T02:14:52.158Z,14.92
2023-08-06T02:17:18.585Z,14.90
2023-08-06T02:19:45.008Z,14.91
2023-08-06T02:22:11.394Z,14.94
2023-08-06T02:24:37.829Z,14.93
2023-08-06T02:27:04.490Z,14.92
2023-08-06T02:29:30.963Z,14.93
2023-08-06T02:31:57.470Z,14.93
2023-08-06T02:34:23.897Z,14.94
2023-08-06T02:36:50.282Z,14.96
2023-08-06T02:39:16.656Z,14.98
2023-08-06T02:41:43.020Z,14.96
2023-08-06T02:44:09.437Z,14.94
2023-08-06T02:46:35.823Z,14.94
2023-08-06T02:49:02.255Z,14.94
2023-08-06T02:51:28.742Z,14.91
2023-08-06T02:53:55.194Z,14.90
2023-08-06T02:56:22.361Z,14.90
2023-08-06T02:59:12.240Z,14.90
2023-08-06T03:01:48.159Z,14.90
2023-08-06T03:04:21.168Z,14.90
2023-08-06T03:06:52.398Z,14.89
2023-08-06T03:09:21.722Z,14.92
2023-08-06T03:11:49.545Z,14.93
2023-08-06T03:14:16.166Z,14.93
2023-08-06T03:16:44.037Z,14.93
2023-08-06T03:19:12.871Z,14.90
2023-08-06T03:21:39.276Z,14.88
2023-08-06T03:24:05.989Z,14.85
2023-08-06T03:26:34.460Z,14.84
2023-08-06T03:29:02.142Z,14.82
2023-08-06T03:31:31.257Z,14.81
2023-08-06T03:33:58.594Z,14.81
2023-08-06T03:36:27.346Z,14.79
2023-08-06T03:38:54.840Z,14.75
2023-08-06T03:41:21.414Z,14.70
2023-08-06T03:43:48.088Z,14.72
2023-08-06T03:46:20.996Z,14.71
2023-08-06T03:48:47.459Z,14.70
2023-08-06T03:51:13.929Z,14.69
2023-08-06T03:53:43.109Z,14.66
2023-08-06T03:56:10.016Z,14.67
2023-08-06T03:58:36.447Z,14.65
2023-08-06T04:01:03.997Z,14.61
2023-08-06T04:03:43.736Z,14.60
2023-08-06T04:06:10.310Z,14.62
2023-08-06T04:08:37.236Z,14.61
2023-08-06T04:11:04.607Z,14.63
2023-08-06T04:13:31.017Z,14.61
2023-08-06T04:16:02.650Z,14.60
2023-08-06T04:18:29.308Z,14.59
2023-08-06T04:20:58.150Z,14.58
2023-08-06T04:23:25.777Z,14.59
2023-08-06T04:25:58.745Z,14.59
2023-08-06T04:28:28.324Z,14.61
2023-08-06T04:30:55.043Z,14.62
2023-08-06T04:33:22.554Z,14.63
2023-08-06T04:35:55.536Z,14.63
2023-08-06T04:38:24.937Z,14.65
2023-08-06T04:40:51.413Z,14.64
2023-08-06T04:43:17.907Z,14.61
2023-08-06T04:45:48.520Z,14.60
2023-08-06T04:48:15.170Z,14.60
2023-08-06T04:50:49.223Z,14.61
2023-08-06T04:53:16.809Z,14.62
2023-08-06T04:55:43.594Z,14.64
2023-08-06T04:58:11.229Z,14.68
2023-08-06T05:00:37.756Z,14.69
2023-08-06T05:03:04.253Z,14.70
2023-08-06T05:05:30.657Z,14.71
2023-08-06T05:07:58.224Z,14.72
2023-08-06T05:10:28.019Z,14.75
2023-08-06T05:12:54.659Z,14.76
2023-08-06T05:15:21.189Z,14.75
2023-08-06T05:17:47.584Z,14.73
2023-08-06T05:20:14.099Z,14.73
2023-08-06T05:22:40.465Z,14.74
2023-08-06T05:25:07.608Z,14.74
2023-08-06T05:27:34.123Z,14.76
2023-08-06T05:30:00.626Z,14.78
2023-08-06T05:32:27.080Z,14.78
2023-08-06T05:34:53.560Z,14.81
2023-08-06T05:37:19.963Z,14.83
2023-08-06T05:39:46.347Z,14.86
2023-08-06T05:42:12.708Z,14.87
2023-08-06T05:44:39.110Z,14.90
2023-08-06T05:47:05.790Z,14.96
2023-08-06T05:49:32.169Z,15.00
2023-08-06T05:51:58.689Z,15.03
2023-08-06T05:54:25.068Z,15.05
2023-08-06T05:56:51.559Z,15.09
2023-08-06T05:59:18.009Z,15.15
2023-08-06T06:01:44.442Z,15.21
2023-08-06T06:04:10.960Z,15.26
2023-08-06T06:06:37.335Z,15.30
2023-08-06T06:09:03.892Z,15.35
2023-08-06T06:11:30.283Z,15.40
2023-08-06T06:13:56.704Z,15.43
2023-08-06T06:16:23.103Z,15.49
2023-08-06T06:18:49.605Z,15.54
2023-08-06T06:21:16.002Z,15.60
2023-08-06T06:23:42.408Z,15.64
2023-08-06T06:26:08.940Z,15.68
2023-08-06T06:28:35.317Z,15.77
2023-08-06T06:31:02.804Z,15.84
2023-08-06T06:33:29.228Z,15.88
2023-08-06T06:35:55.611Z,15.94
2023-08-06T06:38:22.041Z,16.00
2023-08-06T06:40:58.024Z,16.04
2023-08-06T06:43:25.006Z,16.05
2023-08-06T06:45:57.120Z,16.08
2023-08-06T06:48:23.646Z,16.12
2023-08-06T06:50:50.187Z,16.14
2023-08-06T06:53:16.615Z,16.17
2023-08-06T06:55:43.114Z,16.19
2023-08-06T06:58:09.562Z,16.21
2023-08-06T07:00:38.860Z,16.32
2023-08-06T07:03:05.340Z,16.22
2023-08-06T07:05:31.771Z,16.19
2023-08-06T07:07:58.151Z,16.20
2023-08-06T07:10:24.634Z,16.18
2023-08-06T07:12:51.014Z,16.16
2023-08-06T07:15:18.622Z,16.19
2023-08-06T07:17:45.104Z,16.26
2023-08-06T07:20:11.506Z,16.22
2023-08-06T07:22:38.014Z,16.15
2023-08-06T07:25:04.718Z,16.14
2023-08-06T07:27:31.211Z,16.21
2023-08-06T07:29:59.413Z,16.21
2023-08-06T07:32:25.841Z,16.17
2023-08-06T07:34:57.526Z,16.24
2023-08-06T07:37:24.185Z,16.22
2023-08-06T07:39:50.611Z,16.27
2023-08-06T07:42:17.073Z,16.31
2023-08-06T07:44:43.450Z,16.56
2023-08-06T07:47:09.929Z,16.43
2023-08-06T07:49:36.289Z,16.54
2023-08-06T07:52:03.689Z,16.62
2023-08-06T07:54:30.595Z,16.56
2023-08-06T07:56:56.986Z,16.60
2023-08-06T07:59:23.393Z,16.75
2023-08-06T08:01:49.792Z,16.83
2023-08-06T08:04:16.158Z,16.77
2023-08-06T08:06:42.901Z,16.84
2023-08-06T08:09:09.272Z,16.87
2023-08-06T08:11:35.772Z,16.88
2023-08-06T08:14:02.196Z,16.90
2023-08-06T08:16:28.670Z,16.88
2023-08-06T08:18:55.156Z,16.95
2023-08-06T08:21:21.566Z,16.92
2023-08-06T08:23:48.274Z,16.97
2023-08-06T08:26:14.697Z,16.89
2023-08-06T08:28:41.080Z,16.93
2023-08-06T08:31:12.214Z,16.90
2023-08-06T08:33:39.269Z,16.88
2023-08-06T08:36:05.793Z,16.83
2023-08-06T08:38:32.664Z,16.82
2023-08-06T08:40:59.189Z,16.81
2023-08-06T08:43:25.604Z,16.84
2023-08-06T08:45:52.949Z,16.94
2023-08-06T08:48:20.560Z,16.90
2023-08-06T08:50:49.580Z,17.01
2023-08-06T08:53:17.898Z,16.99
2023-08-06T08:55:48.533Z,17.05
2023-08-06T08:58:15.779Z,16.96
2023-08-06T09:00:43.375Z,16.95
2023-08-06T09:03:10.672Z,16.87
2023-08-06T09:05:41.797Z,16.81
2023-08-06T09:08:11.446Z,16.79
2023-08-06T09:10:39.779Z,16.80
2023-08-06T09:13:07.380Z,16.96
2023-08-06T09:15:34.630Z,17.05
2023-08-06T09:18:01.066Z,17.13
2023-08-06T09:20:27.592Z,17.04
2023-08-06T09:22:54.526Z,17.13
2023-08-06T09:25:27.225Z,17.22
2023-08-06T09:27:53.587Z,17.13
2023-08-06T09:30:33.523Z,17.20
2023-08-06T09:33:00.661Z,17.32
2023-08-06T09:35:31.644Z,17.22
2023-08-06T09:38:11.511Z,17.17
2023-08-06T09:40:39.269Z,17.29
2023-08-06T09:43:06.818Z,17.46
2023-08-06T09:45:37.568Z,17.48
2023-08-06T09:48:05.604Z,17.40
2023-08-06T09:50:33.854Z,17.42
2023-08-06T09:53:05.551Z,17.52
2023-08-06T09:55:33.049Z,17.50
2023-08-06T09:58:00.090Z,17.52
2023-08-06T10:00:27.537Z,17.51
2023-08-06T10:02:56.966Z,17.44
2023-08-06T10:05:24.649Z,17.41
2023-08-06T10:07:52.047Z,17.36
2023-08-06T10:10:20.656Z,17.32
2023-08-06T10:12:53.048Z,17.27
2023-08-06T10:15:26.383Z,17.22
2023-08-06T10:17:57.147Z,17.20
2023-08-06T10:20:24.196Z,17.20
2023-08-06T10:23:04.046Z,17.25
2023-08-06T10:25:35.361Z,17.26
2023-08-06T10:28:09.312Z,17.26
2023-08-06T10:30:43.170Z,17.21
2023-08-06T10:33:09.631Z,17.15
2023-08-06T10:35:51.190Z,17.05
2023-08-06T10:38:19.828Z,16.97
2023-08-06T10:41:03.092Z,16.97
2023-08-06T10:43:44.368Z,16.94
2023-08-06T10:46:12.260Z,16.91
2023-08-06T10:48:40.671Z,17.04
2023-08-06T10:51:12.369Z,17.10
2023-08-06T10:53:42.235Z,17.09
2023-08-06T10:56:15.727Z,17.04
2023-08-06T10:58:43.064Z,17.02
2023-08-06T11:01:10.325Z,17.07
2023-08-06T11:03:37.215Z,16.99
2023-08-06T11:06:04.049Z,16.88
2023-08-06T11:08:35.563Z,16.88
2023-08-06T11:11:13.965Z,16.80
2023-08-06T11:13:50.805Z,16.87
2023-08-06T11:16:25.639Z,16.62
2023-08-06T11:18:53.716Z,16.45
2023-08-06T11:21:22.176Z,16.31
2023-08-06T11:23:49.265Z,16.23
2023-08-06T11:26:20.953Z,16.22
2023-08-06T11:28:47.353Z,16.28
2023-08-06T11:31:31.890Z,16.18
2023-08-06T11:33:58.306Z,16.09
2023-08-06T11:36:35.123Z,16.13
2023-08-06T11:39:01.973Z,16.09
2023-08-06T11:41:31.953Z,15.97
2023-08-06T11:43:59.365Z,16.09
2023-08-06T11:46:27.039Z,16.10
2023-08-06T11:48:57.561Z,16.15
2023-08-06T11:51:27.187Z,16.26
2023-08-06T11:53:57.727Z,16.19
2023-08-06T11:56:26.381Z,16.07
2023-08-06T11:58:53.128Z,15.90
2023-08-06T12:01:19.675Z,15.89
2023-08-06T12:03:46.080Z,15.76
2023-08-06T12:06:12.524Z,15.68
2023-08-06T12:08:39.521Z,15.62
2023-08-06T12:11:06.018Z,15.50
2023-08-06T12:13:32.459Z,15.42
2023-08-06T12:15:58.922Z,15.39
2023-08-06T12:18:25.370Z,15.36
2023-08-06T12:20:51.921Z,15.33
2023-08-06T12:23:18.774Z,15.32
2023-08-06T12:25:45.803Z,15.32
2023-08-06T12:28:13.345Z,15.31
2023-08-06T12:30:42.815Z,15.19
2023-08-06T12:33:10.600Z,15.14
2023-08-06T12:35:37.054Z,15.02
2023-08-06T12:38:03.885Z,14.83
2023-08-06T12:40:37.627Z,14.69
2023-08-06T12:43:04.314Z,14.56
2023-08-06T12:45:30.848Z,14.49
2023-08-06T12:47:57.319Z,14.40
2023-08-06T12:50:23.844Z,14.42
2023-08-06T12:52:50.259Z,14.27
2023-08-06T12:55:16.646Z,14.10
2023-08-06T12:57:57.456Z,14.12
2023-08-06T13:00:25.590Z,14.05
2023-08-06T13:02:52.083Z,14.07
2023-08-06T13:05:18.707Z,14.04
2023-08-06T13:07:45.327Z,14.00
2023-08-06T13:10:11.753Z,13.97
2023-08-06T13:12:38.258Z,14.00
2023-08-06T13:15:05.209Z,14.10
2023-08-06T13:17:31.715Z,14.15
2023-08-06T13:19:58.674Z,14.17
2023-08-06T13:22:25.051Z,14.21
2023-08-06T13:24:51.429Z,14.19
2023-08-06T13:27:17.817Z,14.25
2023-08-06T13:29:44.321Z,14.27
2023-08-06T13:32:10.779Z,14.29
2023-08-06T13:34:37.174Z,14.37
2023-08-06T13:37:03.718Z,14.43
2023-08-06T13:39:30.144Z,14.40
2023-08-06T13:41:56.544Z,14.51
2023-08-06T13:44:22.991Z,14.55
2023-08-06T13:46:49.370Z,14.59
2023-08-06T13:49:15.754Z,14.57
2023-08-06T13:51:42.130Z,14.57
2023-08-06T13:54:08.598Z,14.58
2023-08-06T13:56:36.032Z,14.66
2023-08-06T13:59:02.588Z,14.72
2023-08-06T14:01:42.910Z,14.73
2023-08-06T14:04:14.442Z,14.69
2023-08-06T14:06:40.858Z,14.77
2023-08-06T14:09:07.339Z,14.75
2023-08-06T14:11:33.769Z,14.80
2023-08-06T14:14:01.938Z,14.77
2023-08-06T14:16:30.752Z,14.80
2023-08-06T14:18:57.169Z,14.79
2023-08-06T14:21:23.555Z,14.85
2023-08-06T14:23:49.981Z,14.90
2023-08-06T14:26:16.454Z,14.90
2023-08-06T14:28:43.084Z,14.86
2023-08-06T14:31:09.542Z,14.93
2023-08-06T14:33:35.928Z,14.94
2023-08-06T14:36:02.928Z,14.88
2023-08-06T14:38:29.340Z,14.87
2023-08-06T14:40:55.748Z,14.92
2023-08-06T14:43:22.250Z,14.89
2023-08-06T14:45:48.744Z,14.90
2023-08-06T14:48:15.114Z,14.96
2023-08-06T14:50:42.205Z,14.93
2023-08-06T14:53:09.315Z,14.96
2023-08-06T14:55:35.806Z,14.98
2023-08-06T14:58:02.749Z,14.99
2023-08-06T15:00:29.586Z,14.95
2023-08-06T15:02:56.093Z,14.95
2023-08-06T15:05:22.584Z,14.96
2023-08-06T15:07:49.015Z,15.01
2023-08-06T15:10:26.487Z,15.04
2023-08-06T15:12:54.648Z,15.13
2023-08-06T15:15:21.469Z,15.19
2023-08-06T15:17:47.896Z,15.24
2023-08-06T15:20:14.574Z,15.29
2023-08-06T15:22:41.146Z,15.40
2023-08-06T15:25:07.997Z,15.50
2023-08-06T15:27:35.969Z,15.59
2023-08-06T15:30:03.928Z,15.60
2023-08-06T15:32:30.325Z,15.56
2023-08-06T15:34:56.743Z,15.54
2023-08-06T15:37:23.469Z,15.45
2023-08-06T15:39:49.856Z,15.45
2023-08-06T15:42:16.670Z,15.48
2023-08-06T15:44:43.253Z,15.43
2023-08-06T15:47:09.810Z,15.47
2023-08-06T15:49:36.775Z,15.46
2023-08-06T15:52:03.426Z,15.41
2023-08-06T15:54:29.824Z,15.37
2023-08-06T15:56:56.503Z,15.35
2023-08-06T15:59:33.453Z,15.35
2023-08-06T16:02:03.394Z,15.30
2023-08-06T16:04:31.421Z,15.27
2023-08-06T16:06:58.793Z,15.18
2023-08-06T16:09:25.444Z,15.18
2023-08-06T16:11:52.842Z,15.19
2023-08-06T16:14:19.776Z,15.19
2023-08-06T16:16:47.353Z,15.22
2023-08-06T16:19:13.906Z,15.20
2023-08-06T16:21:40.284Z,15.12
2023-08-06T16:24:08.426Z,15.11
2023-08-06T16:26:34.875Z,15.09
2023-08-06T16:29:01.323Z,15.08
2023-08-06T16:31:27.931Z,15.08
2023-08-06T16:33:54.513Z,15.04
2023-08-06T16:36:21.041Z,15.02
2023-08-06T16:38:47.792Z,15.04
2023-08-06T16:41:14.279Z,15.02
2023-08-06T16:43:40.905Z,14.96
2023-08-06T16:46:07.395Z,15.01
2023-08-06T16:48:35.045Z,14.94
2023-08-06T16:51:01.938Z,14.86
2023-08-06T16:53:28.850Z,14.78
2023-08-06T16:55:58.360Z,14.76
2023-08-06T16:58:25.974Z,14.71
2023-08-06T17:00:53.596Z,14.73
2023-08-06T17:03:21.115Z,14.75
2023-08-06T17:05:47.863Z,14.68
2023-08-06T17:08:14.349Z,14.72
2023-08-06T17:10:40.849Z,14.73
2023-08-06T17:13:18.384Z,14.70
2023-08-06T17:15:47.650Z,14.71
2023-08-06T17:18:17.254Z,14.64
2023-08-06T17:20:44.337Z,14.70
2023-08-06T17:23:10.793Z,14.71
2023-08-06T17:25:37.233Z,14.74
2023-08-06T17:28:06.790Z,14.74
2023-08-06T17:30:33.233Z,14.74
2023-08-06T17:32:59.661Z,14.77
2023-08-06T17:35:26.151Z,14.77
2023-08-06T17:37:54.227Z,14.77
2023-08-06T17:40:20.725Z,14.73
2023-08-06T17:42:47.094Z,14.79
2023-08-06T17:45:13.562Z,14.75
2023-08-06T17:47:42.049Z,14.73
2023-08-06T17:50:09.379Z,14.79
2023-08-06T17:52:35.917Z,14.75
2023-08-06T17:55:04.847Z,14.86
2023-08-06T17:57:31.423Z,14.81
2023-08-06T17:59:57.884Z,14.85
2023-08-06T18:02:27.030Z,14.81
2023-08-06T18:04:53.651Z,14.79
2023-08-06T18:07:20.159Z,14.74
2023-08-06T18:09:46.578Z,14.66
2023-08-06T18:12:12.951Z,14.57
2023-08-06T18:14:40.364Z,14.49
2023-08-06T18:17:06.866Z,14.43
2023-08-06T18:19:33.286Z,14.41
2023-08-06T18:22:01.395Z,14.40
2023-08-06T18:24:27.878Z,14.39
2023-08-06T18:26:54.413Z,14.39
2023-08-06T18:29:21.034Z,14.38
2023-08-06T18:31:47.429Z,14.34
2023-08-06T18:34:13.979Z,14.32
2023-08-06T18:36:40.432Z,14.27
2023-08-06T18:39:06.881Z,14.28
2023-08-06T18:41:34.236Z,14.21
2023-08-06T18:44:00.650Z,14.18
2023-08-06T18:46:27.130Z,14.11
2023-08-06T18:48:53.552Z,14.03
2023-08-06T18:51:20.968Z,13.97
2023-08-06T18:53:47.416Z,13.91
2023-08-06T18:56:13.787Z,13.93
2023-08-06T18:58:40.286Z,13.92
2023-08-06T19:01:06.704Z,13.94
2023-08-06T19:03:33.173Z,13.93
2023-08-06T19:06:02.829Z,13.95
2023-08-06T19:08:29.229Z,13.97
2023-08-06T19:10:55.669Z,13.95
2023-08-06T19:13:22.129Z,13.94
2023-08-06T19:15:49.864Z,13.94
2023-08-06T19:18:16.431Z,13.96
2023-08-06T19:20:46.103Z,13.88
2023-08-06T19:23:20.574Z,13.94
2023-08-06T19:25:48.561Z,13.94
2023-08-06T19:28:17.193Z,13.91
2023-08-06T19:30:44.357Z,13.88
2023-08-06T19:33:14.279Z,13.93
2023-08-06T19:35:53.968Z,13.95
2023-08-06T19:38:22.162Z,13.91
2023-08-06T19:40:48.591Z,13.94
2023-08-06T19:43:15.038Z,13.88
2023-08-06T19:45:47.062Z,13.84
2023-08-06T19:48:13.483Z,13.88
2023-08-06T19:50:40.508Z,13.88
2023-08-06T19:53:06.881Z,13.90
2023-08-06T19:55:33.273Z,13.84
2023-08-06T19:57:59.633Z,13.82
2023-08-06T20:00:26.093Z,13.83
2023-08-06T20:02:52.526Z,13.80
2023-08-06T20:05:19.129Z,13.81
2023-08-06T20:07:45.498Z,13.81
2023-08-06T20:10:11.930Z,13.78
2023-08-06T20:12:38.327Z,13.73
2023-08-06T20:15:04.926Z,13.70
2023-08-06T20:17:31.960Z,13.68
2023-08-06T20:19:58.496Z,13.69
2023-08-06T20:22:25.030Z,13.66
2023-08-06T20:24:51.400Z,13.64
2023-08-06T20:27:17.869Z,13.67
2023-08-06T20:29:44.232Z,13.60
2023-08-06T20:32:10.626Z,13.65
2023-08-06T20:34:37.064Z,13.62
2023-08-06T20:37:03.654Z,13.62
2023-08-06T20:39:30.024Z,13.61
2023-08-06T20:41:56.709Z,13.57
2023-08-06T20:44:24.145Z,13.59
2023-08-06T20:46:52.570Z,13.55
2023-08-06T20:49:19.025Z,13.56
2023-08-06T20:51:45.410Z,13.59
2023-08-06T20:54:11.852Z,13.61
2023-08-06T20:56:38.239Z,13.61
2023-08-06T20:59:04.672Z,13.63
2023-08-06T21:01:31.047Z,13.57
2023-08-06T21:03:57.416Z,13.57
2023-08-06T21:06:23.795Z,13.60
2023-08-06T21:08:50.190Z,13.53
2023-08-06T21:11:17.099Z,13.56
2023-08-06T21:13:46.625Z,13.54
2023-08-06T21:16:13.184Z,13.43
2023-08-06T21:18:40.491Z,13.40
2023-08-06T21:21:07.296Z,13.34
2023-08-06T21:23:33.814Z,13.39
2023-08-06T21:26:04.992Z,13.35
2023-08-06T21:28:33.242Z,13.35
2023-08-06T21:31:05.195Z,13.35
2023-08-06T21:33:33.434Z,13.28
2023-08-06T21:36:02.935Z,13.33
2023-08-06T21:38:30.395Z,13.34
2023-08-06T21:41:08.016Z,13.33
2023-08-06T21:43:39.789Z,13.24
2023-08-06T21:46:10.967Z,13.24
2023-08-06T21:48:38.885Z,13.11
2023-08-06T21:51:07.769Z,13.15
2023-08-06T21:53:35.814Z,13.13
2023-08-06T21:56:06.159Z,13.13
2023-08-06T21:58:44.579Z,13.13
2023-08-06T22:01:12.479Z,13.13
2023-08-06T22:03:40.982Z,13.12
2023-08-06T22:06:09.071Z,13.09
2023-08-06T22:08:35.974Z,13.06
2023-08-06T22:11:03.723Z,13.06
2023-08-06T22:13:30.506Z,13.09
2023-08-06T22:15:57.231Z,13.04
2023-08-06T22:18:24.086Z,13.06
2023-08-06T22:20:51.070Z,13.06
2023-08-06T22:23:17.539Z,13.03
2023-08-06T22:25:43.931Z,13.00
2023-08-06T22:28:10.325Z,12.97
2023-08-06T22:30:36.915Z,12.98
2023-08-06T22:33:03.497Z,12.99
2023-08-06T22:35:29.995Z,13.02
2023-08-06T22:37:56.469Z,12.94
2023-08-06T22:40:22.865Z,13.00
2023-08-06T22:42:49.238Z,12.99
2023-08-06T22:45:15.672Z,12.97
2023-08-06T22:47:43.133Z,13.00
2023-08-06T22:50:11.665Z,12.95
2023-08-06T22:52:38.943Z,13.01
2023-08-06T22:55:17.672Z,12.93
2023-08-06T22:57:52.408Z,12.89
2023-08-06T23:00:18.806Z,12.94
2023-08-06T23:02:54.924Z,12.93
2023-08-06T23:05:25.803Z,12.94
2023-08-06T23:07:52.317Z,12.90
2023-08-06T23:10:18.757Z,12.87
2023-08-06T23:12:45.319Z,12.90
2023-08-06T23:15:11.750Z,12.94
2023-08-06T23:17:39.796Z,12.87
2023-08-06T23:20:09.088Z,12.92
2023-08-06T23:22:35.519Z,12.92
2023-08-06T23:25:01.941Z,12.87
2023-08-06T23:27:28.728Z,12.90
2023-08-06T23:29:55.093Z,12.88
2023-08-06T23:32:22.325Z,12.89
2023-08-06T23:34:53.785Z,12.85
2023-08-06T23:37:20.894Z,12.82
2023-08-06T23:39:47.477Z,12.85
2023-08-06T23:42:13.847Z,12.92
2023-08-06T23:44:40.215Z,12.94
2023-08-06T23:47:06.665Z,12.90
2023-08-06T23:49:33.140Z,12.92
2023-08-06T23:51:59.504Z,12.92
2023-08-06T23:54:25.899Z,12.93
2023-08-06T23:56:52.282Z,12.93
2023-08-06T23:59:18.708Z,12.91
